.
WxDataArchive / Data Records for 2015-08-16
2015-08-15 August 2015 2015-08-17

Data Records for Sunday, 16 August 2015

Time	Temp	Chill	HIndex	Humid	Dewpt	 Wind 	HiWind	WindDir	Rain 	Barom
-----	----	-----	------	-----	-----	------	------	-------	-----	-----
00:00	70.1	70.1	70.1	89	66.7	0	0	---	0.00	30.089 
00:05	70.1	70.1	70.1	89	66.7	0	0	---	0.00	30.089 
00:10	70.1	70.1	70.1	89	66.7	0	0	---	0.00	30.089 
00:15	69.9	69.9	69.9	89	66.5	0	0	---	0.00	30.090 
00:20	69.9	69.9	69.9	89	66.5	0	0	---	0.00	30.090 
00:25	69.8	69.8	69.8	89	66.4	0	0	---	0.00	30.090 
00:30	69.6	69.6	69.6	89	66.2	0	0	---	0.00	30.090 
00:35	69.6	69.6	69.6	89	66.2	0	0	---	0.00	30.090 
00:40	69.4	69.4	69.4	89	66.0	0	0	---	0.00	30.090 
00:45	69.3	69.3	69.3	90	66.2	0	0	---	0.00	30.092 
00:50	69.1	69.1	69.1	90	66.0	0	0	---	0.00	30.092 
00:55	68.9	68.9	68.9	90	65.8	0	0	---	0.00	30.092 
01:00	68.9	68.9	68.9	90	65.8	0	0	---	0.00	30.091 
01:05	68.9	68.9	68.9	90	65.8	0	0	---	0.00	30.091 
01:10	68.8	68.8	68.8	91	66.1	0	0	---	0.00	30.091 
01:15	68.6	68.6	68.6	91	65.9	0	0	---	0.00	30.090 
01:20	68.6	68.6	68.6	91	65.9	0	0	---	0.00	30.090 
01:25	68.4	68.4	68.4	91	65.7	0	0	---	0.00	30.090 
01:30	68.4	68.4	68.4	91	65.7	0	0	---	0.00	30.091 
01:35	68.3	68.3	68.3	91	65.6	0	0	---	0.00	30.091 
01:40	68.3	68.3	68.3	91	65.6	0	0	---	0.00	30.091 
01:45	68.1	68.1	68.1	92	65.7	0	0	---	0.00	30.091 
01:50	67.9	67.9	67.9	92	65.5	0	0	---	0.00	30.091 
01:55	67.9	67.9	67.9	92	65.5	0	0	---	0.00	30.091 
02:00	67.8	67.8	67.8	92	65.4	0	0	---	0.00	30.090 
02:05	67.8	67.8	67.8	92	65.4	0	0	---	0.00	30.090 
02:10	67.6	67.6	67.6	92	65.2	0	0	---	0.00	30.090 
02:15	67.6	67.6	67.6	92	65.2	0	0	---	0.00	30.087 
02:20	67.4	67.4	67.4	92	65.0	0	0	---	0.00	30.087 
02:25	67.4	67.4	67.4	92	65.0	0	0	---	0.00	30.087 
02:30	67.4	67.4	67.4	92	65.0	0	0	---	0.00	30.088 
02:35	67.4	67.4	67.4	92	65.0	0	0	---	0.00	30.088 
02:40	67.3	67.3	67.3	92	64.9	0	0	---	0.00	30.088 
02:45	67.3	67.3	67.3	92	64.9	0	0	---	0.00	30.086 
02:50	67.1	67.1	67.1	93	65.0	0	0	---	0.00	30.086 
02:55	67.1	67.1	67.1	93	65.0	0	0	---	0.00	30.086 
03:00	67.1	67.1	67.1	93	65.0	0	0	---	0.00	30.083 
03:05	66.9	66.9	66.9	93	64.8	0	0	---	0.00	30.083 
03:10	66.9	66.9	66.9	93	64.8	0	0	---	0.00	30.083 
03:15	66.9	66.9	66.9	93	64.8	0	0	---	0.00	30.075 
03:20	66.9	66.9	66.9	93	64.8	0	0	---	0.00	30.075 
03:25	66.8	66.8	66.8	93	64.7	0	0	---	0.00	30.075 
03:30	66.8	66.8	66.8	93	64.7	0	0	---	0.00	30.073 
03:35	66.6	66.6	66.6	93	64.5	0	0	---	0.00	30.073 
03:40	66.4	66.4	66.4	93	64.3	0	0	---	0.00	30.073 
03:45	66.4	66.4	66.4	93	64.3	0	0	---	0.00	30.073 
03:50	66.4	66.4	66.4	93	64.3	0	0	---	0.00	30.073 
03:55	66.3	66.3	66.3	93	64.2	0	0	---	0.00	30.073 
04:00	66.3	66.3	66.3	93	64.2	0	0	---	0.00	30.074 
04:05	66.1	66.1	66.1	94	64.3	0	0	---	0.00	30.074 
04:10	66.1	66.1	66.1	94	64.3	0	0	---	0.00	30.074 
04:15	66.1	66.1	66.1	94	64.3	0	0	---	0.00	30.072 
04:20	66.1	66.1	66.1	94	64.3	0	0	---	0.00	30.072 
04:25	66.0	66.0	66.0	94	64.2	0	0	---	0.00	30.072 
04:30	66.0	66.0	66.0	94	64.2	0	0	---	0.00	30.070 
04:35	65.8	65.8	65.8	94	64.0	0	0	---	0.00	30.070 
04:40	66.0	66.0	66.0	94	64.2	0	0	---	0.00	30.070 
04:45	66.0	66.0	66.0	94	64.2	0	0	---	0.00	30.069 
04:50	66.0	66.0	66.0	94	64.2	0	0	---	0.00	30.069 
04:55	66.0	66.0	66.0	94	64.2	0	0	---	0.00	30.069 
05:00	65.8	65.8	65.8	94	64.0	0	0	---	0.00	30.070 
05:05	65.8	65.8	65.8	94	64.0	0	0	---	0.00	30.070 
05:10	65.6	65.6	65.6	94	63.8	0	0	---	0.00	30.070 
05:15	65.6	65.6	65.6	94	63.8	0	0	---	0.00	30.070 
05:20	65.5	65.5	65.5	94	63.7	0	0	---	0.00	30.070 
05:25	65.3	65.3	65.3	94	63.5	0	0	---	0.00	30.070 
05:30	65.3	65.3	65.3	94	63.5	0	0	---	0.00	30.072 
05:35	65.3	65.3	65.3	94	63.5	0	0	---	0.00	30.072 
05:40	65.3	65.3	65.3	94	63.5	0	0	---	0.00	30.072 
05:45	65.3	65.3	65.3	95	63.8	0	0	---	0.00	30.073 
05:50	65.3	65.3	65.3	95	63.8	0	0	---	0.00	30.073 
05:55	65.3	65.3	65.3	95	63.8	0	0	---	0.00	30.073 
06:00	65.3	65.3	65.3	95	63.8	0	0	---	0.00	30.073 
06:05	65.3	65.3	65.3	95	63.8	0	0	---	0.00	30.073 
06:10	65.2	65.2	65.2	95	63.7	0	0	---	0.00	30.073 
06:15	65.3	65.3	65.3	95	63.8	0	0	---	0.00	30.076 
06:20	65.5	65.5	65.5	95	64.0	0	0	---	0.00	30.076 
06:25	65.5	65.5	65.5	95	64.0	0	0	---	0.00	30.076 
06:30	65.3	65.3	65.3	95	63.8	0	0	---	0.00	30.075 
06:35	65.3	65.3	65.3	95	63.8	0	0	---	0.00	30.075 
06:40	65.2	65.2	65.2	95	63.7	0	0	---	0.00	30.075 
06:45	65.2	65.2	65.2	95	63.7	0	0	---	0.00	30.078 
06:50	65.0	65.0	65.0	95	63.5	0	0	---	0.00	30.078 
06:55	65.0	65.0	65.0	95	63.5	0	0	---	0.00	30.078 
07:00	64.8	64.8	64.8	95	63.3	0	0	---	0.00	30.078 
07:05	64.8	64.8	64.8	95	63.3	0	0	---	0.00	30.078 
07:10	64.8	64.8	64.8	95	63.3	0	0	---	0.00	30.078 
07:15	64.8	64.8	64.8	95	63.3	0	0	---	0.00	30.080 
07:20	65.0	65.0	65.0	95	63.5	0	0	---	0.00	30.080 
07:25	65.0	65.0	65.0	95	63.5	0	0	---	0.00	30.080 
07:30	65.3	65.3	65.3	95	63.8	0	0	---	0.00	30.082 
07:35	65.5	65.5	65.5	95	64.0	0	0	---	0.00	30.082 
07:40	65.6	65.6	65.6	95	64.1	0	0	---	0.00	30.082 
07:45	66.0	66.0	66.0	95	64.5	0	0	---	0.00	30.090 
07:50	66.3	66.3	66.3	96	65.1	0	0	---	0.00	30.090 
07:55	66.6	66.6	66.6	95	65.1	0	0	---	0.00	30.090 
08:00	66.9	66.9	66.9	96	65.7	0	0	---	0.00	30.105 
08:05	67.4	67.4	67.4	95	65.9	0	0	---	0.00	30.105 
08:10	68.1	68.1	68.1	95	66.6	0	0	---	0.00	30.105 
08:15	68.6	68.6	68.6	95	67.1	0	0	---	0.00	30.105 
08:20	69.3	69.3	69.3	95	67.8	0	0	---	0.00	30.105 
08:25	69.6	69.6	69.6	94	67.8	0	1	90	0.00	30.105 
08:30	70.1	70.1	70.1	93	68.0	0	0	---	0.00	30.104 
08:35	70.4	70.4	70.4	92	68.0	0	0	---	0.00	30.104 
08:40	70.9	70.9	70.9	91	68.1	0	0	---	0.00	30.104 
08:45	71.1	71.1	71.1	89	67.7	0	0	---	0.00	30.107 
08:50	71.5	71.5	71.5	87	67.4	0	0	---	0.00	30.107 
08:55	71.6	71.6	71.6	85	66.8	0	0	---	0.00	30.107 
09:00	72.0	72.0	72.0	84	66.9	0	0	---	0.00	30.116 
09:05	72.3	72.3	72.3	84	67.2	0	0	---	0.00	30.116 
09:10	72.7	72.7	72.7	81	66.5	0	0	---	0.00	30.116 
09:15	73.0	73.0	73.0	79	66.1	0	0	---	0.00	30.123 
09:20	73.2	73.2	73.2	76	65.2	0	0	---	0.00	30.123 
09:25	73.3	73.3	73.3	76	65.3	0	0	---	0.00	30.123 
09:30	73.5	73.5	73.5	76	65.5	0	0	---	0.00	30.129 
09:35	73.7	73.7	73.7	76	65.6	0	0	---	0.00	30.129 
09:40	74.0	74.0	74.0	75	65.6	0	1	90	0.00	30.129 
09:45	74.2	74.2	74.2	73	65.0	0	1	90	0.00	30.127 
09:50	74.6	74.6	74.6	72	65.0	0	1	90	0.00	30.127 
09:55	74.7	74.7	74.7	72	65.1	0	2	90	0.00	30.127 
10:00	74.9	74.9	74.9	71	64.8	0	1	90	0.00	30.132 
10:05	74.9	74.9	74.9	71	64.8	0	1	90	0.00	30.132 
10:10	75.4	75.4	77.0	71	65.3	0	2	90	0.00	30.132 
10:15	76.0	76.0	77.7	68	64.7	0	2	90	0.00	30.128 
10:20	76.7	76.7	78.5	67	64.9	0	2	90	0.00	30.128 
10:25	77.2	77.2	79.0	67	65.4	0	2	90	0.00	30.128 
10:30	77.4	77.4	79.2	66	65.1	0	2	22	0.00	30.132 
10:35	77.4	77.4	79.2	67	65.6	0	1	22	0.00	30.132 
10:40	77.7	77.7	79.6	69	66.7	0	3	68	0.00	30.132 
10:45	78.1	78.1	80.0	67	66.2	0	1	68	0.00	30.131 
10:50	78.6	78.6	80.7	68	67.1	0	1	68	0.00	30.131 
10:55	79.4	79.4	81.6	65	66.6	0	1	68	0.00	30.131 
11:00	80.1	80.1	82.4	64	66.8	0	3	68	0.00	30.127 
11:05	80.7	80.7	83.2	64	67.4	0	2	68	0.00	30.127 
11:10	80.9	80.9	83.2	62	66.6	1	3	0	0.00	30.127 
11:15	81.1	81.1	83.6	63	67.3	0	3	338	0.00	30.128 
11:20	80.7	80.7	82.9	62	66.4	0	2	338	0.00	30.128 
11:25	80.5	80.5	82.8	63	66.7	0	2	338	0.00	30.128 
11:30	80.3	80.3	82.8	65	67.4	0	2	338	0.00	30.127 
11:35	80.7	80.7	83.4	65	67.8	0	3	338	0.00	30.127 
11:40	81.4	81.4	83.9	62	67.1	0	2	338	0.00	30.127 
11:45	81.8	81.8	84.7	63	67.9	0	1	338	0.00	30.120 
11:50	82.4	82.4	85.2	61	67.6	0	3	338	0.00	30.120 
11:55	83.0	83.0	85.9	60	67.7	0	2	0	0.00	30.120 
12:00	83.2	83.2	86.0	59	67.4	1	2	0	0.00	30.117 
12:05	83.8	83.8	86.9	59	67.9	0	2	0	0.00	30.117 
12:10	84.1	84.1	86.9	57	67.2	0	2	0	0.00	30.117 
12:15	84.1	84.1	86.7	56	66.7	0	3	315	0.00	30.113 
12:20	84.0	84.0	86.5	56	66.6	0	2	315	0.00	30.113 
12:25	83.6	83.6	86.4	58	67.2	0	1	315	0.00	30.113 
12:30	83.8	83.8	86.4	57	66.9	0	2	315	0.00	30.107 
12:35	84.1	84.1	87.2	58	67.7	0	2	315	0.00	30.107 
12:40	84.9	84.9	88.8	59	68.9	0	1	315	0.00	30.107 
12:45	85.5	85.5	88.6	55	67.5	1	4	90	0.00	30.100 
12:50	85.7	85.7	89.2	56	68.2	0	2	90	0.00	30.100 
12:55	86.1	86.1	89.9	56	68.5	0	2	90	0.00	30.100 
13:00	86.3	86.3	89.6	54	67.7	0	2	90	0.00	30.093 
13:05	86.3	86.3	89.9	55	68.2	1	4	90	0.00	30.093 
13:10	86.3	86.3	90.2	56	68.7	0	2	90	0.00	30.093 
13:15	86.3	86.3	90.2	56	68.7	1	4	90	0.00	30.085 
13:20	86.1	86.1	89.6	55	68.0	1	3	90	0.00	30.085 
13:25	85.7	85.7	89.9	58	69.2	0	2	90	0.00	30.085 
13:30	85.9	85.9	89.9	57	68.9	0	1	90	0.00	30.083 
13:35	85.9	85.9	90.2	58	69.4	0	2	90	0.00	30.083 
13:40	86.1	86.1	89.9	56	68.5	0	3	90	0.00	30.083 
13:45	85.5	85.5	89.2	57	68.5	0	1	90	0.00	30.074 
13:50	84.7	84.7	88.1	58	68.3	0	2	90	0.00	30.074 
13:55	84.3	84.3	87.5	58	67.9	0	2	90	0.00	30.074 
14:00	84.3	84.3	88.6	62	69.8	0	2	90	0.00	30.072 
14:05	84.5	84.5	88.1	59	68.6	1	3	90	0.00	30.072 
14:10	84.3	84.3	88.0	60	68.9	0	1	90	0.00	30.072 
14:15	84.3	84.3	87.8	59	68.4	0	1	90	0.00	30.071 
14:20	84.5	84.5	88.1	59	68.6	1	2	90	0.00	30.071 
14:25	84.7	84.7	88.7	60	69.2	0	2	90	0.00	30.071 
14:30	85.1	85.1	89.4	60	69.6	0	2	90	0.00	30.061 
14:35	85.7	85.7	89.9	58	69.2	0	1	90	0.00	30.061 
14:40	86.3	86.3	90.9	58	69.7	1	3	112	0.00	30.061 
14:45	86.7	86.7	91.3	57	69.6	1	4	90	0.00	30.054 
14:50	86.7	86.7	91.3	57	69.6	1	2	90	0.00	30.054 
14:55	87.0	87.0	91.5	56	69.4	0	3	90	0.00	30.054 
15:00	87.2	87.2	91.9	56	69.6	0	2	45	0.00	30.052 
15:05	87.0	87.0	90.8	54	68.3	1	3	68	0.00	30.052 
15:10	86.7	86.7	91.0	56	69.1	0	2	68	0.00	30.052 
15:15	86.7	86.7	91.0	56	69.1	0	3	68	0.00	30.045 
15:20	86.7	86.7	91.3	57	69.6	0	2	68	0.00	30.045 
15:25	87.0	87.0	90.8	54	68.3	0	2	68	0.00	30.045 
15:30	87.2	87.2	91.1	54	68.5	0	1	68	0.00	30.043 
15:35	86.7	86.7	90.6	55	68.6	0	1	68	0.00	30.043 
15:40	86.1	86.1	90.2	57	69.1	0	2	22	0.00	30.043 
15:45	85.7	85.7	89.9	58	69.2	0	1	22	0.00	30.039 
15:50	86.1	86.1	90.9	59	70.1	0	4	22	0.00	30.039 
15:55	86.7	86.7	91.7	58	70.1	0	2	292	0.00	30.039 
16:00	87.2	87.2	92.3	57	70.1	0	3	292	0.00	30.038 
16:05	87.4	87.4	92.6	57	70.3	0	3	0	0.00	30.038 
16:10	87.4	87.4	91.9	55	69.2	1	3	90	0.00	30.038 
16:15	87.6	87.6	91.5	53	68.3	0	2	90	0.00	30.035 
16:20	87.8	87.8	92.2	54	69.0	0	2	90	0.00	30.035 
16:25	87.8	87.8	91.1	51	67.4	0	2	90	0.00	30.035 
16:30	87.8	87.8	92.2	54	69.0	0	1	90	0.00	30.023 
16:35	88.0	88.0	92.2	53	68.7	0	2	90	0.00	30.023 
16:40	87.8	87.8	92.2	54	69.0	0	2	90	0.00	30.023 
16:45	87.2	87.2	90.8	53	67.9	0	1	90	0.00	30.025 
16:50	86.7	86.7	90.3	54	68.0	0	1	90	0.00	30.025 
16:55	86.7	86.7	90.3	54	68.0	0	2	90	0.00	30.025 
17:00	86.5	86.5	89.9	54	67.8	0	1	90	0.00	30.024 
17:05	85.9	85.9	89.2	55	67.8	0	3	90	0.00	30.024 
17:10	85.7	85.7	89.5	57	68.7	0	1	90	0.00	30.024 
17:15	85.5	85.5	88.9	56	68.0	0	1	90	0.00	30.024 
17:20	85.3	85.3	88.5	56	67.8	0	1	45	0.00	30.024 
17:25	85.3	85.3	88.8	57	68.3	0	3	45	0.00	30.024 
17:30	85.3	85.3	89.2	58	68.8	0	1	68	0.00	30.023 
17:35	85.7	85.7	89.5	57	68.7	0	1	68	0.00	30.023 
17:40	85.9	85.9	89.9	57	68.9	0	2	68	0.00	30.023 
17:45	85.7	85.7	89.2	56	68.2	0	1	68	0.00	30.023 
17:50	85.3	85.3	88.5	56	67.8	0	1	68	0.00	30.023 
17:55	84.9	84.9	88.5	58	68.4	0	1	68	0.00	30.023 
18:00	84.3	84.3	87.8	59	68.4	1	4	292	0.00	30.029 
18:05	83.2	83.2	86.5	61	68.3	2	5	292	0.00	30.029 
18:10	82.0	82.0	84.6	61	67.2	0	3	292	0.00	30.029 
18:15	81.2	81.2	83.5	61	66.4	0	3	292	0.00	30.028 
18:20	80.9	80.9	82.8	59	65.2	1	3	292	0.00	30.028 
18:25	80.7	80.7	82.4	58	64.5	0	2	292	0.00	30.028 
18:30	80.5	80.5	82.3	59	64.8	0	1	292	0.00	30.027 
18:35	80.5	80.5	82.7	62	66.3	0	2	292	0.00	30.027 
18:40	80.7	80.7	83.1	63	66.9	0	1	292	0.00	30.027 
18:45	80.7	80.7	83.2	64	67.4	0	1	292	0.00	30.033 
18:50	80.7	80.7	83.4	65	67.8	0	1	292	0.00	30.033 
18:55	80.5	80.5	82.8	63	66.7	0	2	292	0.00	30.033 
19:00	80.1	80.1	82.3	63	66.3	0	1	292	0.00	30.029 
19:05	79.8	79.8	81.8	62	65.6	0	1	292	0.00	30.029 
19:10	79.8	79.8	81.8	62	65.6	0	0	---	0.00	30.029 
19:15	79.6	79.6	81.6	63	65.9	0	0	---	0.00	30.025 
19:20	79.6	79.6	81.6	63	65.9	0	0	---	0.00	30.025 
19:25	79.8	79.8	81.9	63	66.1	0	0	---	0.00	30.025 
19:30	79.9	79.9	82.1	64	66.6	0	0	---	0.00	30.023 
19:35	80.1	80.1	82.5	65	67.2	0	0	---	0.00	30.023 
19:40	80.3	80.3	82.5	63	66.5	0	1	292	0.00	30.023 
19:45	80.3	80.3	82.4	62	66.1	0	1	292	0.00	30.026 
19:50	80.3	80.3	82.7	64	67.0	0	0	---	0.00	30.026 
19:55	80.3	80.3	82.5	63	66.5	0	1	45	0.00	30.026 
20:00	80.1	80.1	82.4	64	66.8	0	1	45	0.00	30.027 
20:05	79.9	79.9	82.2	65	67.1	0	0	---	0.00	30.027 
20:10	79.8	79.8	82.3	67	67.8	0	0	---	0.00	30.027 
20:15	79.4	79.4	82.0	70	68.7	0	1	45	0.00	30.019 
20:20	79.2	79.2	81.9	72	69.4	0	0	---	0.00	30.019 
20:25	78.8	78.8	81.4	74	69.8	0	0	---	0.00	30.019 
20:30	78.6	78.6	81.1	75	70.0	0	0	---	0.00	30.019 
20:35	78.5	78.5	81.0	76	70.3	0	1	45	0.00	30.019 
20:40	78.1	78.1	80.4	77	70.3	0	0	---	0.00	30.019 
20:45	77.9	77.9	80.1	77	70.1	0	0	---	0.00	30.022 
20:50	77.7	77.7	79.7	78	70.3	0	0	---	0.00	30.022 
20:55	77.7	77.7	79.7	78	70.3	0	0	---	0.00	30.022 
21:00	77.6	77.6	79.6	78	70.2	0	0	---	0.00	30.024 
21:05	77.6	77.6	79.6	79	70.6	0	0	---	0.00	30.024 
21:10	77.4	77.4	79.3	79	70.4	0	0	---	0.00	30.024 
21:15	77.4	77.4	79.2	80	70.7	0	0	---	0.00	30.029 
21:20	77.4	77.4	79.2	80	70.7	0	0	---	0.00	30.029 
21:25	77.2	77.2	78.9	81	70.9	0	0	---	0.00	30.029 
21:30	77.2	77.2	78.9	81	70.9	0	0	---	0.00	30.035 
21:35	77.2	77.2	78.9	81	70.9	0	0	---	0.00	30.035 
21:40	77.2	77.2	78.9	81	70.9	0	0	---	0.00	30.035 
21:45	77.0	77.0	78.5	81	70.7	0	0	---	0.00	30.038 
21:50	77.0	77.0	78.5	81	70.7	0	0	---	0.00	30.038 
21:55	77.0	77.0	78.5	81	70.7	0	1	22	0.00	30.038 
22:00	76.8	76.8	78.2	81	70.5	0	1	22	0.00	30.044 
22:05	76.5	76.5	77.7	81	70.2	0	1	22	0.00	30.044 
22:10	76.1	76.1	77.1	81	69.8	0	1	22	0.00	30.044 
22:15	75.8	75.8	76.4	83	70.3	0	1	22	0.00	30.039 
22:20	75.6	75.6	76.0	84	70.4	0	0	---	0.00	30.039 
22:25	75.4	75.4	75.4	86	70.9	0	1	22	0.00	30.039 
22:30	75.3	75.3	75.1	87	71.2	0	1	22	0.00	30.047 
22:35	75.3	75.3	75.0	88	71.5	0	0	---	0.01	30.047 
22:40	75.1	75.1	74.6	88	71.3	0	0	---	0.00	30.047 
22:45	74.9	74.9	74.9	88	71.1	0	0	---	0.00	30.050 
22:50	74.9	74.9	74.9	88	71.1	0	0	---	0.00	30.050 
22:55	74.9	74.9	74.9	88	71.1	0	0	---	0.00	30.050 
23:00	74.9	74.9	74.9	88	71.1	0	0	---	0.00	30.049 
23:05	74.9	74.9	74.9	88	71.1	0	0	---	0.00	30.049 
23:10	74.7	74.7	74.7	88	70.9	0	0	---	0.00	30.049 
23:15	74.6	74.6	74.6	89	71.1	0	0	---	0.00	30.043 
23:20	74.6	74.6	74.6	89	71.1	0	0	---	0.00	30.043 
23:25	74.4	74.4	74.4	89	70.9	0	0	---	0.00	30.043 
23:30	74.4	74.4	74.4	89	70.9	0	0	---	0.00	30.044 
23:35	74.4	74.4	74.4	90	71.3	0	0	---	0.00	30.044 
23:40	74.4	74.4	74.4	90	71.3	0	0	---	0.00	30.044 
23:45	74.2	74.2	74.2	90	71.1	0	0	---	0.00	30.045 
23:50	74.2	74.2	74.2	90	71.1	0	0	---	0.00	30.045 
23:55	74.2	74.2	74.2	90	71.1	0	0	---	0.00	30.045 

CoCoRaHS
IN-AL-39
A2 Web Hosting
Creative Commons License
GoDaddy
search engine by freefind advanced

loaded 2018-11-16 23:16:46 • last modified 2010-11-18 10:43:29
Privacy PolicyDisclaimer
• wx.awcolley.com is powered by PmWiki v.2002016 •
• all content (unless otherwise noted) © 2018 A W Colley